sensor_id;sensor_type;location;lat;lon;timestamp;temperature;humidity
10583;DHT22;33679;51.218;6.786;2023-08-20T00:02:22;25.60;99.90
10583;DHT22;33679;51.218;6.786;2023-08-20T00:04:57;25.60;99.90
10583;DHT22;33679;51.218;6.786;2023-08-20T00:07:31;25.60;99.90
10583;DHT22;33679;51.218;6.786;2023-08-20T00:10:04;25.60;99.90
10583;DHT22;33679;51.218;6.786;2023-08-20T00:12:37;25.60;99.90
10583;DHT22;33679;51.218;6.786;2023-08-20T00:15:13;25.60;99.90
10583;DHT22;33679;51.218;6.786;2023-08-20T00:17:48;25.60;99.90
10583;DHT22;33679;51.218;6.786;2023-08-20T00:20:27;25.60;99.90
10583;DHT22;33679;51.218;6.786;2023-08-20T00:23:00;25.60;99.90
10583;DHT22;33679;51.218;6.786;2023-08-20T00:25:33;25.60;99.90
10583;DHT22;33679;51.218;6.786;2023-08-20T00:28:08;25.60;99.90
10583;DHT22;33679;51.218;6.786;2023-08-20T00:30:42;25.50;99.90
10583;DHT22;33679;51.218;6.786;2023-08-20T00:33:16;25.50;99.90
10583;DHT22;33679;51.218;6.786;2023-08-20T00:35:48;25.40;99.90
10583;DHT22;33679;51.218;6.786;2023-08-20T00:38:23;25.40;99.90
10583;DHT22;33679;51.218;6.786;2023-08-20T00:40:56;25.30;99.90
10583;DHT22;33679;51.218;6.786;2023-08-20T00:43:28;25.30;99.90
10583;DHT22;33679;51.218;6.786;2023-08-20T00:46:02;25.40;99.90
10583;DHT22;33679;51.218;6.786;2023-08-20T00:48:35;25.30;99.90
10583;DHT22;33679;51.218;6.786;2023-08-20T00:51:07;25.30;99.90
10583;DHT22;33679;51.218;6.786;2023-08-20T00:53:39;25.30;99.90
10583;DHT22;33679;51.218;6.786;2023-08-20T00:56:12;25.30;99.90
10583;DHT22;33679;51.218;6.786;2023-08-20T00:58:45;25.30;99.90
10583;DHT22;33679;51.218;6.786;2023-08-20T01:01:20;25.30;99.90
10583;DHT22;33679;51.218;6.786;2023-08-20T01:03:54;25.30;99.90
10583;DHT22;33679;51.218;6.786;2023-08-20T01:06:44;25.30;99.90
10583;DHT22;33679;51.218;6.786;2023-08-20T01:09:26;25.30;99.90
10583;DHT22;33679;51.218;6.786;2023-08-20T01:12:03;25.30;99.90
10583;DHT22;33679;51.218;6.786;2023-08-20T01:14:37;25.30;99.90
10583;DHT22;33679;51.218;6.786;2023-08-20T01:17:11;25.30;99.90
10583;DHT22;33679;51.218;6.786;2023-08-20T01:19:43;25.30;99.90
10583;DHT22;33679;51.218;6.786;2023-08-20T01:25:30;25.30;99.90
10583;DHT22;33679;51.218;6.786;2023-08-20T01:28:19;25.30;99.90
10583;DHT22;33679;51.218;6.786;2023-08-20T01:30:54;25.30;99.90
10583;DHT22;33679;51.218;6.786;2023-08-20T01:33:28;25.20;99.90
10583;DHT22;33679;51.218;6.786;2023-08-20T01:36:07;25.20;99.90
10583;DHT22;33679;51.218;6.786;2023-08-20T01:38:41;25.30;99.90
10583;DHT22;33679;51.218;6.786;2023-08-20T01:41:14;25.30;99.90
10583;DHT22;33679;51.218;6.786;2023-08-20T01:43:48;25.30;99.90
10583;DHT22;33679;51.218;6.786;2023-08-20T01:46:21;25.30;99.90
10583;DHT22;33679;51.218;6.786;2023-08-20T01:48:56;25.30;99.90
10583;DHT22;33679;51.218;6.786;2023-08-20T01:51:28;25.30;99.90
10583;DHT22;33679;51.218;6.786;2023-08-20T01:54:00;25.30;99.90
10583;DHT22;33679;51.218;6.786;2023-08-20T01:56:33;25.30;99.90
10583;DHT22;33679;51.218;6.786;2023-08-20T01:59:06;25.30;99.90
10583;DHT22;33679;51.218;6.786;2023-08-20T02:01:39;25.30;99.90
10583;DHT22;33679;51.218;6.786;2023-08-20T02:04:13;25.30;99.90
10583;DHT22;33679;51.218;6.786;2023-08-20T02:06:47;25.40;99.90
10583;DHT22;33679;51.218;6.786;2023-08-20T02:09:19;25.40;99.90
10583;DHT22;33679;51.218;6.786;2023-08-20T02:11:52;25.40;99.90
10583;DHT22;33679;51.218;6.786;2023-08-20T02:14:26;25.40;99.90
10583;DHT22;33679;51.218;6.786;2023-08-20T02:17:00;25.40;99.90
10583;DHT22;33679;51.218;6.786;2023-08-20T02:19:32;25.40;99.90
10583;DHT22;33679;51.218;6.786;2023-08-20T02:22:04;25.40;99.90
10583;DHT22;33679;51.218;6.786;2023-08-20T02:24:37;25.40;99.90
10583;DHT22;33679;51.218;6.786;2023-08-20T02:27:09;25.40;99.90
10583;DHT22;33679;51.218;6.786;2023-08-20T02:29:43;25.40;99.90
10583;DHT22;33679;51.218;6.786;2023-08-20T02:32:19;25.40;99.90
10583;DHT22;33679;51.218;6.786;2023-08-20T02:34:52;25.40;99.90
10583;DHT22;33679;51.218;6.786;2023-08-20T02:37:25;25.40;99.90
10583;DHT22;33679;51.218;6.786;2023-08-20T02:39:57;25.40;99.90
10583;DHT22;33679;51.218;6.786;2023-08-20T02:42:29;25.30;99.90
10583;DHT22;33679;51.218;6.786;2023-08-20T02:45:04;25.40;99.90
10583;DHT22;33679;51.218;6.786;2023-08-20T02:47:37;25.40;99.90
10583;DHT22;33679;51.218;6.786;2023-08-20T02:50:10;25.40;99.90
10583;DHT22;33679;51.218;6.786;2023-08-20T02:52:43;25.40;99.90
10583;DHT22;33679;51.218;6.786;2023-08-20T02:55:15;25.50;99.90
10583;DHT22;33679;51.218;6.786;2023-08-20T02:57:52;25.50;99.90
10583;DHT22;33679;51.218;6.786;2023-08-20T03:00:26;25.50;99.90
10583;DHT22;33679;51.218;6.786;2023-08-20T03:02:58;25.50;99.90
10583;DHT22;33679;51.218;6.786;2023-08-20T03:05:32;25.50;99.90
10583;DHT22;33679;51.218;6.786;2023-08-20T03:08:05;25.40;99.90
10583;DHT22;33679;51.218;6.786;2023-08-20T03:10:37;25.40;99.90
10583;DHT22;33679;51.218;6.786;2023-08-20T03:13:10;25.40;99.90
10583;DHT22;33679;51.218;6.786;2023-08-20T03:15:44;25.40;99.90
10583;DHT22;33679;51.218;6.786;2023-08-20T03:18:16;25.20;99.90
10583;DHT22;33679;51.218;6.786;2023-08-20T03:20:49;25.20;99.90
10583;DHT22;33679;51.218;6.786;2023-08-20T03:23:21;25.10;99.90
10583;DHT22;33679;51.218;6.786;2023-08-20T03:25:57;25.10;99.90
10583;DHT22;33679;51.218;6.786;2023-08-20T03:28:30;25.10;99.90
10583;DHT22;33679;51.218;6.786;2023-08-20T03:31:04;25.00;99.90
10583;DHT22;33679;51.218;6.786;2023-08-20T03:33:41;24.90;99.90
10583;DHT22;33679;51.218;6.786;2023-08-20T03:36:14;24.90;99.90
10583;DHT22;33679;51.218;6.786;2023-08-20T03:38:46;24.80;99.90
10583;DHT22;33679;51.218;6.786;2023-08-20T03:41:18;24.80;99.90
10583;DHT22;33679;51.218;6.786;2023-08-20T03:43:51;24.80;99.90
10583;DHT22;33679;51.218;6.786;2023-08-20T03:46:25;24.70;99.90
10583;DHT22;33679;51.218;6.786;2023-08-20T03:49:00;24.70;99.90
10583;DHT22;33679;51.218;6.786;2023-08-20T03:51:32;24.60;99.90
10583;DHT22;33679;51.218;6.786;2023-08-20T03:54:05;24.50;99.90
10583;DHT22;33679;51.218;6.786;2023-08-20T03:56:37;24.50;99.90
10583;DHT22;33679;51.218;6.786;2023-08-20T03:59:09;24.40;99.90
10583;DHT22;33679;51.218;6.786;2023-08-20T04:01:43;24.40;99.90
10583;DHT22;33679;51.218;6.786;2023-08-20T04:04:17;24.40;99.90
10583;DHT22;33679;51.218;6.786;2023-08-20T04:06:51;24.40;99.90
10583;DHT22;33679;51.218;6.786;2023-08-20T04:09:26;24.40;99.90
10583;DHT22;33679;51.218;6.786;2023-08-20T04:11:58;24.40;99.90
10583;DHT22;33679;51.218;6.786;2023-08-20T04:14:31;24.40;99.90
10583;DHT22;33679;51.218;6.786;2023-08-20T04:17:04;24.40;99.90
10583;DHT22;33679;51.218;6.786;2023-08-20T04:19:37;24.40;99.90
10583;DHT22;33679;51.218;6.786;2023-08-20T04:22:09;24.40;99.90
10583;DHT22;33679;51.218;6.786;2023-08-20T04:24:41;24.40;99.90
10583;DHT22;33679;51.218;6.786;2023-08-20T04:27:13;24.40;99.90
10583;DHT22;33679;51.218;6.786;2023-08-20T04:29:48;24.40;99.90
10583;DHT22;33679;51.218;6.786;2023-08-20T04:32:21;24.40;99.90
10583;DHT22;33679;51.218;6.786;2023-08-20T04:34:55;24.40;99.90
10583;DHT22;33679;51.218;6.786;2023-08-20T04:37:28;24.40;99.90
10583;DHT22;33679;51.218;6.786;2023-08-20T04:40:02;24.40;99.90
10583;DHT22;33679;51.218;6.786;2023-08-20T04:42:36;24.30;99.90
10583;DHT22;33679;51.218;6.786;2023-08-20T04:45:11;24.30;99.90
10583;DHT22;33679;51.218;6.786;2023-08-20T04:47:45;24.30;99.90
10583;DHT22;33679;51.218;6.786;2023-08-20T04:50:17;24.30;99.90
10583;DHT22;33679;51.218;6.786;2023-08-20T04:52:50;24.30;99.90
10583;DHT22;33679;51.218;6.786;2023-08-20T04:55:22;24.30;99.90
10583;DHT22;33679;51.218;6.786;2023-08-20T04:57:55;24.30;99.90
10583;DHT22;33679;51.218;6.786;2023-08-20T05:00:28;24.40;99.90
10583;DHT22;33679;51.218;6.786;2023-08-20T05:03:11;24.40;99.90
10583;DHT22;33679;51.218;6.786;2023-08-20T05:05:50;24.40;99.90
10583;DHT22;33679;51.218;6.786;2023-08-20T05:08:26;24.40;99.90
10583;DHT22;33679;51.218;6.786;2023-08-20T05:10:59;24.40;99.90
10583;DHT22;33679;51.218;6.786;2023-08-20T05:13:32;24.40;99.90
10583;DHT22;33679;51.218;6.786;2023-08-20T05:16:05;24.40;99.90
10583;DHT22;33679;51.218;6.786;2023-08-20T05:18:38;24.40;99.90
10583;DHT22;33679;51.218;6.786;2023-08-20T05:21:13;24.40;99.90
10583;DHT22;33679;51.218;6.786;2023-08-20T05:23:45;24.40;99.90
10583;DHT22;33679;51.218;6.786;2023-08-20T05:26:17;24.50;99.90
10583;DHT22;33679;51.218;6.786;2023-08-20T05:28:50;24.50;99.90
10583;DHT22;33679;51.218;6.786;2023-08-20T05:31:22;24.60;99.90
10583;DHT22;33679;51.218;6.786;2023-08-20T05:33:56;24.50;99.90
10583;DHT22;33679;51.218;6.786;2023-08-20T05:36:31;24.50;99.90
10583;DHT22;33679;51.218;6.786;2023-08-20T05:39:04;24.60;99.90
10583;DHT22;33679;51.218;6.786;2023-08-20T05:41:37;24.60;99.90
10583;DHT22;33679;51.218;6.786;2023-08-20T05:44:10;24.70;99.90
10583;DHT22;33679;51.218;6.786;2023-08-20T05:46:43;24.70;99.90
10583;DHT22;33679;51.218;6.786;2023-08-20T05:49:18;24.70;99.90
10583;DHT22;33679;51.218;6.786;2023-08-20T05:51:51;24.80;99.90
10583;DHT22;33679;51.218;6.786;2023-08-20T05:54:23;24.90;99.90
10583;DHT22;33679;51.218;6.786;2023-08-20T05:56:58;24.90;99.90
10583;DHT22;33679;51.218;6.786;2023-08-20T05:59:32;25.00;99.90
10583;DHT22;33679;51.218;6.786;2023-08-20T06:02:06;25.10;99.90
10583;DHT22;33679;51.218;6.786;2023-08-20T06:04:39;25.10;99.90
10583;DHT22;33679;51.218;6.786;2023-08-20T06:07:11;25.20;99.90
10583;DHT22;33679;51.218;6.786;2023-08-20T06:09:44;25.20;99.90
10583;DHT22;33679;51.218;6.786;2023-08-20T06:12:16;25.30;99.90
10583;DHT22;33679;51.218;6.786;2023-08-20T06:14:50;25.30;99.90
10583;DHT22;33679;51.218;6.786;2023-08-20T06:17:22;25.30;99.90
10583;DHT22;33679;51.218;6.786;2023-08-20T06:19:56;25.40;99.90
10583;DHT22;33679;51.218;6.786;2023-08-20T06:22:29;25.30;99.90
10583;DHT22;33679;51.218;6.786;2023-08-20T06:25:03;25.30;99.90
10583;DHT22;33679;51.218;6.786;2023-08-20T06:27:35;25.30;99.90
10583;DHT22;33679;51.218;6.786;2023-08-20T06:30:08;25.40;99.90
10583;DHT22;33679;51.218;6.786;2023-08-20T06:32:41;25.40;99.90
10583;DHT22;33679;51.218;6.786;2023-08-20T06:35:17;25.50;99.90
10583;DHT22;33679;51.218;6.786;2023-08-20T06:37:51;25.50;99.90
10583;DHT22;33679;51.218;6.786;2023-08-20T06:40:24;25.40;99.90
10583;DHT22;33679;51.218;6.786;2023-08-20T06:42:56;25.50;99.90
10583;DHT22;33679;51.218;6.786;2023-08-20T06:45:28;25.60;99.90
10583;DHT22;33679;51.218;6.786;2023-08-20T06:48:01;25.60;99.90
10583;DHT22;33679;51.218;6.786;2023-08-20T06:50:34;25.60;99.90
10583;DHT22;33679;51.218;6.786;2023-08-20T06:53:09;25.70;99.90
10583;DHT22;33679;51.218;6.786;2023-08-20T06:55:41;25.80;99.90
10583;DHT22;33679;51.218;6.786;2023-08-20T06:58:13;25.80;99.90
10583;DHT22;33679;51.218;6.786;2023-08-20T07:00:45;25.90;99.90
10583;DHT22;33679;51.218;6.786;2023-08-20T07:03:17;25.90;99.90
10583;DHT22;33679;51.218;6.786;2023-08-20T07:05:51;25.90;99.90
10583;DHT22;33679;51.218;6.786;2023-08-20T07:08:29;25.90;99.90
10583;DHT22;33679;51.218;6.786;2023-08-20T07:11:02;25.80;99.90
10583;DHT22;33679;51.218;6.786;2023-08-20T07:13:36;25.80;99.90
10583;DHT22;33679;51.218;6.786;2023-08-20T07:16:09;25.80;99.90
10583;DHT22;33679;51.218;6.786;2023-08-20T07:18:43;25.90;99.90
10583;DHT22;33679;51.218;6.786;2023-08-20T07:21:17;25.90;99.90
10583;DHT22;33679;51.218;6.786;2023-08-20T07:23:49;26.00;99.90
10583;DHT22;33679;51.218;6.786;2023-08-20T07:26:21;26.00;99.90
10583;DHT22;33679;51.218;6.786;2023-08-20T07:28:54;26.20;99.90
10583;DHT22;33679;51.218;6.786;2023-08-20T07:31:30;26.20;99.90
10583;DHT22;33679;51.218;6.786;2023-08-20T07:34:03;26.30;99.90
10583;DHT22;33679;51.218;6.786;2023-08-20T07:36:37;26.40;99.90
10583;DHT22;33679;51.218;6.786;2023-08-20T07:39:09;26.40;99.90
10583;DHT22;33679;51.218;6.786;2023-08-20T07:41:44;26.50;99.90
10583;DHT22;33679;51.218;6.786;2023-08-20T07:44:16;26.50;99.90
10583;DHT22;33679;51.218;6.786;2023-08-20T07:46:48;26.50;99.90
10583;DHT22;33679;51.218;6.786;2023-08-20T07:49:20;26.60;99.90
10583;DHT22;33679;51.218;6.786;2023-08-20T07:51:57;26.60;99.90
10583;DHT22;33679;51.218;6.786;2023-08-20T07:54:32;26.60;99.90
10583;DHT22;33679;51.218;6.786;2023-08-20T07:57:04;26.70;99.90
10583;DHT22;33679;51.218;6.786;2023-08-20T07:59:37;26.70;99.90
10583;DHT22;33679;51.218;6.786;2023-08-20T08:02:09;26.70;99.90
10583;DHT22;33679;51.218;6.786;2023-08-20T08:04:42;26.70;99.90
10583;DHT22;33679;51.218;6.786;2023-08-20T08:07:15;26.60;99.90
10583;DHT22;33679;51.218;6.786;2023-08-20T08:09:48;26.60;99.90
10583;DHT22;33679;51.218;6.786;2023-08-20T08:12:20;26.60;99.90
10583;DHT22;33679;51.218;6.786;2023-08-20T08:14:52;26.70;99.90
10583;DHT22;33679;51.218;6.786;2023-08-20T08:17:24;26.80;99.90
10583;DHT22;33679;51.218;6.786;2023-08-20T08:19:57;26.80;99.90
10583;DHT22;33679;51.218;6.786;2023-08-20T08:22:30;26.90;99.90
10583;DHT22;33679;51.218;6.786;2023-08-20T08:25:03;26.90;99.90
10583;DHT22;33679;51.218;6.786;2023-08-20T08:27:37;27.00;99.90
10583;DHT22;33679;51.218;6.786;2023-08-20T08:30:10;27.10;99.90
10583;DHT22;33679;51.218;6.786;2023-08-20T08:32:42;27.10;99.90
10583;DHT22;33679;51.218;6.786;2023-08-20T08:35:17;27.10;99.90
10583;DHT22;33679;51.218;6.786;2023-08-20T08:37:50;27.20;99.90
10583;DHT22;33679;51.218;6.786;2023-08-20T08:40:24;27.20;99.90
10583;DHT22;33679;51.218;6.786;2023-08-20T08:43:00;27.10;99.90
10583;DHT22;33679;51.218;6.786;2023-08-20T08:45:33;27.10;99.90
10583;DHT22;33679;51.218;6.786;2023-08-20T08:48:06;27.20;99.90
10583;DHT22;33679;51.218;6.786;2023-08-20T08:50:42;27.30;99.90
10583;DHT22;33679;51.218;6.786;2023-08-20T08:53:16;27.30;99.90
10583;DHT22;33679;51.218;6.786;2023-08-20T08:55:49;27.40;99.90
10583;DHT22;33679;51.218;6.786;2023-08-20T08:58:21;27.40;99.90
10583;DHT22;33679;51.218;6.786;2023-08-20T09:00:54;27.40;99.90
10583;DHT22;33679;51.218;6.786;2023-08-20T09:03:28;27.40;99.90
10583;DHT22;33679;51.218;6.786;2023-08-20T09:06:03;27.40;99.90
10583;DHT22;33679;51.218;6.786;2023-08-20T09:08:41;27.50;99.90
10583;DHT22;33679;51.218;6.786;2023-08-20T09:11:13;27.60;99.90
10583;DHT22;33679;51.218;6.786;2023-08-20T09:13:46;27.70;99.90
10583;DHT22;33679;51.218;6.786;2023-08-20T09:16:18;27.70;99.90
10583;DHT22;33679;51.218;6.786;2023-08-20T09:18:50;27.70;99.90
10583;DHT22;33679;51.218;6.786;2023-08-20T09:21:27;27.70;99.90
10583;DHT22;33679;51.218;6.786;2023-08-20T09:24:02;27.80;99.90
10583;DHT22;33679;51.218;6.786;2023-08-20T09:26:34;27.90;99.90
10583;DHT22;33679;51.218;6.786;2023-08-20T09:29:07;28.00;99.90
10583;DHT22;33679;51.218;6.786;2023-08-20T09:31:39;28.00;99.90
10583;DHT22;33679;51.218;6.786;2023-08-20T09:34:13;28.10;99.90
10583;DHT22;33679;51.218;6.786;2023-08-20T09:36:46;28.10;99.90
10583;DHT22;33679;51.218;6.786;2023-08-20T09:39:19;28.10;99.90
10583;DHT22;33679;51.218;6.786;2023-08-20T09:41:55;28.10;99.90
10583;DHT22;33679;51.218;6.786;2023-08-20T09:44:32;28.20;99.90
10583;DHT22;33679;51.218;6.786;2023-08-20T09:47:07;28.20;99.90
10583;DHT22;33679;51.218;6.786;2023-08-20T09:49:41;28.30;99.90
10583;DHT22;33679;51.218;6.786;2023-08-20T09:52:16;28.30;99.90
10583;DHT22;33679;51.218;6.786;2023-08-20T09:55:00;28.40;99.90
10583;DHT22;33679;51.218;6.786;2023-08-20T09:57:36;28.50;99.90
10583;DHT22;33679;51.218;6.786;2023-08-20T10:00:25;28.60;99.90
10583;DHT22;33679;51.218;6.786;2023-08-20T10:03:03;28.70;99.90
10583;DHT22;33679;51.218;6.786;2023-08-20T10:05:42;28.70;99.90
10583;DHT22;33679;51.218;6.786;2023-08-20T10:08:20;28.70;99.90
10583;DHT22;33679;51.218;6.786;2023-08-20T10:10:59;28.70;99.90
10583;DHT22;33679;51.218;6.786;2023-08-20T10:13:46;28.80;99.90
10583;DHT22;33679;51.218;6.786;2023-08-20T10:16:29;28.90;99.90
10583;DHT22;33679;51.218;6.786;2023-08-20T10:19:23;29.00;99.90
10583;DHT22;33679;51.218;6.786;2023-08-20T10:21:56;29.10;99.90
10583;DHT22;33679;51.218;6.786;2023-08-20T10:24:29;29.20;99.90
10583;DHT22;33679;51.218;6.786;2023-08-20T10:27:26;29.30;99.90
10583;DHT22;33679;51.218;6.786;2023-08-20T10:30:02;29.30;99.90
10583;DHT22;33679;51.218;6.786;2023-08-20T10:32:47;29.20;99.90
10583;DHT22;33679;51.218;6.786;2023-08-20T10:35:25;29.20;99.90
10583;DHT22;33679;51.218;6.786;2023-08-20T10:38:04;29.20;99.90
10583;DHT22;33679;51.218;6.786;2023-08-20T10:40:52;29.20;99.90
10583;DHT22;33679;51.218;6.786;2023-08-20T10:43:31;29.20;99.90
10583;DHT22;33679;51.218;6.786;2023-08-20T10:46:17;29.10;99.90
10583;DHT22;33679;51.218;6.786;2023-08-20T10:48:52;29.00;99.90
10583;DHT22;33679;51.218;6.786;2023-08-20T10:51:28;29.00;99.90
10583;DHT22;33679;51.218;6.786;2023-08-20T10:54:05;29.00;99.90
10583;DHT22;33679;51.218;6.786;2023-08-20T10:56:40;29.10;99.90
10583;DHT22;33679;51.218;6.786;2023-08-20T10:59:20;29.10;99.90
10583;DHT22;33679;51.218;6.786;2023-08-20T11:01:55;29.30;99.90
10583;DHT22;33679;51.218;6.786;2023-08-20T11:04:30;29.30;99.90
10583;DHT22;33679;51.218;6.786;2023-08-20T11:07:04;29.40;99.90
10583;DHT22;33679;51.218;6.786;2023-08-20T11:09:37;29.40;99.90
10583;DHT22;33679;51.218;6.786;2023-08-20T11:12:14;29.50;99.90
10583;DHT22;33679;51.218;6.786;2023-08-20T11:14:48;29.40;99.90
10583;DHT22;33679;51.218;6.786;2023-08-20T11:17:20;29.60;99.90
10583;DHT22;33679;51.218;6.786;2023-08-20T11:19:53;29.60;99.90
10583;DHT22;33679;51.218;6.786;2023-08-20T11:22:26;29.70;99.90
10583;DHT22;33679;51.218;6.786;2023-08-20T11:25:00;29.70;99.90
10583;DHT22;33679;51.218;6.786;2023-08-20T11:27:32;29.80;99.90
10583;DHT22;33679;51.218;6.786;2023-08-20T11:30:09;29.80;99.90
10583;DHT22;33679;51.218;6.786;2023-08-20T11:32:45;29.80;99.90
10583;DHT22;33679;51.218;6.786;2023-08-20T11:35:17;29.70;99.90
10583;DHT22;33679;51.218;6.786;2023-08-20T11:37:50;29.80;99.90
10583;DHT22;33679;51.218;6.786;2023-08-20T11:40:23;29.90;99.90
10583;DHT22;33679;51.218;6.786;2023-08-20T11:42:56;29.90;99.90
10583;DHT22;33679;51.218;6.786;2023-08-20T11:45:29;29.90;99.90
10583;DHT22;33679;51.218;6.786;2023-08-20T11:48:03;29.90;99.90
10583;DHT22;33679;51.218;6.786;2023-08-20T11:50:36;29.90;99.90
10583;DHT22;33679;51.218;6.786;2023-08-20T11:53:08;29.90;99.90
10583;DHT22;33679;51.218;6.786;2023-08-20T11:55:43;29.80;99.90
10583;DHT22;33679;51.218;6.786;2023-08-20T11:58:15;29.80;99.90
10583;DHT22;33679;51.218;6.786;2023-08-20T12:00:53;29.80;99.90
10583;DHT22;33679;51.218;6.786;2023-08-20T12:03:29;29.70;99.90
10583;DHT22;33679;51.218;6.786;2023-08-20T12:06:20;29.70;99.90
10583;DHT22;33679;51.218;6.786;2023-08-20T12:08:53;29.70;99.90
10583;DHT22;33679;51.218;6.786;2023-08-20T12:11:26;29.70;99.90
10583;DHT22;33679;51.218;6.786;2023-08-20T12:13:58;29.70;99.90
10583;DHT22;33679;51.218;6.786;2023-08-20T12:16:32;29.70;99.90
10583;DHT22;33679;51.218;6.786;2023-08-20T12:19:04;29.70;99.90
10583;DHT22;33679;51.218;6.786;2023-08-20T12:21:37;29.70;99.90
10583;DHT22;33679;51.218;6.786;2023-08-20T12:24:09;29.70;99.90
10583;DHT22;33679;51.218;6.786;2023-08-20T12:26:42;29.80;99.90
10583;DHT22;33679;51.218;6.786;2023-08-20T12:29:15;29.80;99.90
10583;DHT22;33679;51.218;6.786;2023-08-20T12:31:50;29.70;99.90
10583;DHT22;33679;51.218;6.786;2023-08-20T12:34:22;29.80;99.90
10583;DHT22;33679;51.218;6.786;2023-08-20T12:36:54;29.80;99.90
10583;DHT22;33679;51.218;6.786;2023-08-20T12:39:29;29.90;99.90
10583;DHT22;33679;51.218;6.786;2023-08-20T12:42:02;29.90;99.90
10583;DHT22;33679;51.218;6.786;2023-08-20T12:44:36;29.90;99.90
10583;DHT22;33679;51.218;6.786;2023-08-20T12:47:10;29.90;99.90
10583;DHT22;33679;51.218;6.786;2023-08-20T12:49:42;30.00;99.90
10583;DHT22;33679;51.218;6.786;2023-08-20T12:52:14;30.00;99.90
10583;DHT22;33679;51.218;6.786;2023-08-20T12:54:49;30.10;99.90
10583;DHT22;33679;51.218;6.786;2023-08-20T12:57:23;30.10;99.90
10583;DHT22;33679;51.218;6.786;2023-08-20T12:59:56;30.00;99.90
10583;DHT22;33679;51.218;6.786;2023-08-20T13:02:30;30.10;99.90
10583;DHT22;33679;51.218;6.786;2023-08-20T13:05:03;30.10;99.90
10583;DHT22;33679;51.218;6.786;2023-08-20T13:07:36;30.10;99.90
10583;DHT22;33679;51.218;6.786;2023-08-20T13:10:09;30.00;99.90
10583;DHT22;33679;51.218;6.786;2023-08-20T13:12:42;29.90;99.90
10583;DHT22;33679;51.218;6.786;2023-08-20T13:15:19;29.80;99.90
10583;DHT22;33679;51.218;6.786;2023-08-20T13:17:56;29.80;99.90
10583;DHT22;33679;51.218;6.786;2023-08-20T13:20:28;29.80;99.90
10583;DHT22;33679;51.218;6.786;2023-08-20T13:23:00;29.80;99.90
10583;DHT22;33679;51.218;6.786;2023-08-20T13:25:33;29.80;99.90
10583;DHT22;33679;51.218;6.786;2023-08-20T13:28:05;29.80;99.90
10583;DHT22;33679;51.218;6.786;2023-08-20T13:30:38;29.80;99.90
10583;DHT22;33679;51.218;6.786;2023-08-20T13:33:12;29.80;99.90
10583;DHT22;33679;51.218;6.786;2023-08-20T13:35:44;29.90;99.90
10583;DHT22;33679;51.218;6.786;2023-08-20T13:38:16;29.90;99.90
10583;DHT22;33679;51.218;6.786;2023-08-20T13:40:49;29.90;99.90
10583;DHT22;33679;51.218;6.786;2023-08-20T13:43:21;30.00;99.90
10583;DHT22;33679;51.218;6.786;2023-08-20T13:45:54;30.00;99.90
10583;DHT22;33679;51.218;6.786;2023-08-20T13:48:27;30.00;99.90
10583;DHT22;33679;51.218;6.786;2023-08-20T13:50:59;30.00;99.90
10583;DHT22;33679;51.218;6.786;2023-08-20T13:53:31;30.00;99.90
10583;DHT22;33679;51.218;6.786;2023-08-20T13:56:04;30.00;99.90
10583;DHT22;33679;51.218;6.786;2023-08-20T13:58:39;30.00;99.90
10583;DHT22;33679;51.218;6.786;2023-08-20T14:01:11;30.00;99.90
10583;DHT22;33679;51.218;6.786;2023-08-20T14:03:46;30.00;99.90
10583;DHT22;33679;51.218;6.786;2023-08-20T14:06:20;30.10;99.90
10583;DHT22;33679;51.218;6.786;2023-08-20T14:08:54;30.10;99.90
10583;DHT22;33679;51.218;6.786;2023-08-20T14:11:26;30.10;99.90
10583;DHT22;33679;51.218;6.786;2023-08-20T14:13:58;30.10;99.90
10583;DHT22;33679;51.218;6.786;2023-08-20T14:16:34;30.10;99.90
10583;DHT22;33679;51.218;6.786;2023-08-20T14:19:08;30.20;99.90
10583;DHT22;33679;51.218;6.786;2023-08-20T14:21:40;30.20;99.90
10583;DHT22;33679;51.218;6.786;2023-08-20T14:24:12;30.20;99.90
10583;DHT22;33679;51.218;6.786;2023-08-20T14:26:45;30.20;99.90
10583;DHT22;33679;51.218;6.786;2023-08-20T14:29:17;30.10;99.90
10583;DHT22;33679;51.218;6.786;2023-08-20T14:31:49;30.20;99.90
10583;DHT22;33679;51.218;6.786;2023-08-20T14:34:26;30.20;99.90
10583;DHT22;33679;51.218;6.786;2023-08-20T14:37:01;30.30;99.90
10583;DHT22;33679;51.218;6.786;2023-08-20T14:39:34;30.30;99.90
10583;DHT22;33679;51.218;6.786;2023-08-20T14:42:08;30.30;99.90
10583;DHT22;33679;51.218;6.786;2023-08-20T14:44:44;30.30;99.90
10583;DHT22;33679;51.218;6.786;2023-08-20T14:47:18;30.20;99.90
10583;DHT22;33679;51.218;6.786;2023-08-20T14:49:51;30.20;99.90
10583;DHT22;33679;51.218;6.786;2023-08-20T14:52:24;30.30;99.90
10583;DHT22;33679;51.218;6.786;2023-08-20T14:54:56;30.30;99.90
10583;DHT22;33679;51.218;6.786;2023-08-20T14:57:29;30.30;99.90
10583;DHT22;33679;51.218;6.786;2023-08-20T15:00:01;30.20;99.90
10583;DHT22;33679;51.218;6.786;2023-08-20T15:02:36;30.20;99.90
10583;DHT22;33679;51.218;6.786;2023-08-20T15:05:10;30.30;99.90
10583;DHT22;33679;51.218;6.786;2023-08-20T15:07:43;30.40;99.90
10583;DHT22;33679;51.218;6.786;2023-08-20T15:10:15;30.40;99.90
10583;DHT22;33679;51.218;6.786;2023-08-20T15:12:48;30.50;99.90
10583;DHT22;33679;51.218;6.786;2023-08-20T15:15:20;30.50;99.90
10583;DHT22;33679;51.218;6.786;2023-08-20T15:17:52;30.50;99.90
10583;DHT22;33679;51.218;6.786;2023-08-20T15:20:26;30.50;99.90
10583;DHT22;33679;51.218;6.786;2023-08-20T15:23:01;30.60;99.90
10583;DHT22;33679;51.218;6.786;2023-08-20T15:25:34;30.50;99.90
10583;DHT22;33679;51.218;6.786;2023-08-20T15:28:06;30.50;99.90
10583;DHT22;33679;51.218;6.786;2023-08-20T15:30:38;30.50;99.90
10583;DHT22;33679;51.218;6.786;2023-08-20T15:33:11;30.50;99.90
10583;DHT22;33679;51.218;6.786;2023-08-20T15:35:46;30.60;99.90
10583;DHT22;33679;51.218;6.786;2023-08-20T15:38:18;30.60;99.90
10583;DHT22;33679;51.218;6.786;2023-08-20T15:40:52;30.60;99.90
10583;DHT22;33679;51.218;6.786;2023-08-20T15:43:24;30.60;99.90
10583;DHT22;33679;51.218;6.786;2023-08-20T15:45:57;30.60;99.90
10583;DHT22;33679;51.218;6.786;2023-08-20T15:48:29;30.60;99.90
10583;DHT22;33679;51.218;6.786;2023-08-20T15:51:03;30.60;99.90
10583;DHT22;33679;51.218;6.786;2023-08-20T15:53:36;30.60;99.90
10583;DHT22;33679;51.218;6.786;2023-08-20T15:56:09;30.60;99.90
10583;DHT22;33679;51.218;6.786;2023-08-20T15:58:41;30.60;99.90
10583;DHT22;33679;51.218;6.786;2023-08-20T16:01:14;30.60;99.90
10583;DHT22;33679;51.218;6.786;2023-08-20T16:03:46;30.50;99.90
10583;DHT22;33679;51.218;6.786;2023-08-20T16:06:20;30.50;99.90
10583;DHT22;33679;51.218;6.786;2023-08-20T16:08:52;30.50;99.90
10583;DHT22;33679;51.218;6.786;2023-08-20T16:11:25;30.50;99.90
10583;DHT22;33679;51.218;6.786;2023-08-20T16:13:58;30.50;99.90
10583;DHT22;33679;51.218;6.786;2023-08-20T16:16:30;30.50;99.90